Johannesburg, Suid-Afrika

06:10 AM SAST on Augustus 30, 2014 (GMT +0200)
IGAUTENG101 | Change Station
CLOSE
Current Station
Personal Weather Stations
Location: Boksburg, GAUTENG
Elevation: 5466 ft
Nearby Weather Stations

Elev 5466 ft 26.16 °S, 28.28 °E | Updated 9 seconds ago

Clear
Oop
30.4 °F
Feels Like 27 °F
N
3.2
Wind Veranderlik Wind from Suid
Gusts 9.2 mph

Vandag
High -- | Low -- °F
--% Chance of Precip.
Yesterday
High -- | Low -- °F
Precip. -- in
6:21 AM 5:53 PM
Waxing Crescent, 19% visible
Druk 30.33 in
Sigbaarheid -9999.0 myle
Wolke
Wind afkoel 27 °F
Dou-punt 24 °F
Humiditeit 78%
Rainfall 0.00 in
Snow Depth Not available.
UV 0.0 out of 12
Pollen Not available.
Air Quality Not available.
Flu Activity Not available.
METAR FAOR 300400Z 19014KT CAVOK M01/M06 Q1027 NOSIG

More Conditions Fewer Conditions

Druk 30.33 in
Sigbaarheid -9999.0 myle
Wolke
Wind afkoel 27 °F
Dou-punt 24 °F
Humiditeit 78%
Rainfall 0.00 in
Snow Depth Not available.
UV 0.0 out of 12
Pollen Not available.
Air Quality Not available.
Flu Activity Not available.
METAR FAOR 300400Z 19014KT CAVOK M01/M06 Q1027 NOSIG

More Conditions Fewer Conditions

10-Day Weather Forecast

Almanac

Astronomy

Aug. 30, 2014 Rise Set
Ware Tyd 6:21 AM SAST 5:53 PM SAST
Civil Twilight 5:58 AM SAST 6:17 PM SAST
Nautical Twilight 5:31 AM SAST 6:44 PM SAST
Astronomical Twilight 5:05 AM SAST 7:10 PM SAST
Maan 9:02 AM SAST 10:11 PM SAST
Length Of Visible Light 12h 18m
Length of Day
11h 31m
Tomorrow will be 1m 25s longer.
Waxing Crescent, 19% of the Moon is Illuminated
Vandag
Waxing Crescent
Sep 2
Eerste Kwartier
Sep 8
Vol Maan
Sep 15
Laaste kwarter
Sep 24
New

Yesterday's Extremes

Country Highs Country Lows

Community

WunderPhotos

Upload Photos

1,748,448 photos uploaded!

Nearby

Snow Depth

Not available.

Earthquake Activity

Stad Distance Mag. Time & Date
No recent earthquake activity has been reported nearby.
Minimum magnitude displayed is 2.5.

Coastal Water Temperatures

Plek Temperatuur
No Stations Reporting

Nearby Weather Stations